createdAt,value
2018-06-12T00:00:26.661Z,12.57
2018-06-12T00:01:32.098Z,10.97
2018-06-12T00:02:37.537Z,11.93
2018-06-12T00:03:42.981Z,14.97
2018-06-12T00:04:48.424Z,13.00
2018-06-12T00:05:54.024Z,14.50
2018-06-12T00:06:59.526Z,13.60
2018-06-12T00:08:05.095Z,16.63
2018-06-12T00:09:10.531Z,18.40
2018-06-12T00:10:16.704Z,18.07
2018-06-12T00:11:22.150Z,12.57
2018-06-12T00:12:27.565Z,13.73
2018-06-12T00:13:33.023Z,14.87
2018-06-12T00:14:38.570Z,12.33
2018-06-12T00:15:44.168Z,9.17
2018-06-12T00:16:49.643Z,12.60
2018-06-12T00:17:55.841Z,10.93
2018-06-12T00:19:01.405Z,14.10
2018-06-12T00:20:06.873Z,11.87
2018-06-12T00:21:12.374Z,12.57
2018-06-12T00:22:17.785Z,11.00
2018-06-12T00:23:23.254Z,12.37
2018-06-12T00:24:28.752Z,11.10
2018-06-12T00:25:34.178Z,10.30
2018-06-12T00:26:39.681Z,15.80
2018-06-12T00:27:45.129Z,13.00
2018-06-12T00:28:50.657Z,11.60
2018-06-12T00:29:56.165Z,11.67
2018-06-12T00:31:01.577Z,14.90
2018-06-12T00:32:07.085Z,12.70
2018-06-12T00:33:12.533Z,10.80
2018-06-12T00:34:18.049Z,10.77
2018-06-12T00:35:23.726Z,17.17
2018-06-12T00:36:29.241Z,19.53
2018-06-12T00:37:35.124Z,14.13
2018-06-12T00:38:40.603Z,16.80
2018-06-12T00:39:46.136Z,13.00
2018-06-12T00:40:51.815Z,12.10
2018-06-12T00:41:57.322Z,15.23
2018-06-12T00:43:05.291Z,12.97
2018-06-12T00:44:13.967Z,14.43
2018-06-12T00:45:26.052Z,13.53
2018-06-12T00:46:36.208Z,17.00
2018-06-12T00:47:44.478Z,19.50
2018-06-12T00:48:59.594Z,15.77
2018-06-12T00:50:05.853Z,20.83
2018-06-12T00:51:11.426Z,16.83
2018-06-12T00:52:16.838Z,16.33
2018-06-12T00:53:22.768Z,18.13
2018-06-12T00:54:28.170Z,17.13
2018-06-12T00:55:33.593Z,16.13
2018-06-12T00:56:56.047Z,17.53
2018-06-12T00:58:01.595Z,18.43
2018-06-12T00:59:06.973Z,22.93
2018-06-12T01:00:12.417Z,18.40
2018-06-12T01:01:17.953Z,15.43
2018-06-12T01:02:23.486Z,14.93
2018-06-12T01:03:28.931Z,16.67
2018-06-12T01:04:34.378Z,13.40
2018-06-12T01:05:39.804Z,14.53
2018-06-12T01:06:45.662Z,21.80
2018-06-12T01:07:51.131Z,17.90
2018-06-12T01:08:56.536Z,13.97
2018-06-12T01:10:02.124Z,19.63
2018-06-12T01:11:07.689Z,16.47
2018-06-12T01:12:13.267Z,17.50
2018-06-12T01:13:18.862Z,18.00
2018-06-12T01:14:24.281Z,17.93
2018-06-12T01:15:29.722Z,12.00
2018-06-12T01:16:35.130Z,19.07
2018-06-12T01:17:40.717Z,16.67
2018-06-12T01:18:46.561Z,16.80
2018-06-12T01:19:52.609Z,18.73
2018-06-12T01:20:58.090Z,19.73
2018-06-12T01:22:03.520Z,15.53
2018-06-12T01:23:08.947Z,16.77
2018-06-12T01:24:14.512Z,17.03
2018-06-12T01:25:20.003Z,17.27
2018-06-12T01:26:25.445Z,15.83
2018-06-12T01:27:30.862Z,18.33
2018-06-12T01:28:36.342Z,18.20
2018-06-12T01:29:41.758Z,15.23
2018-06-12T01:30:47.307Z,23.93
2018-06-12T01:31:52.882Z,18.23
2018-06-12T01:32:58.921Z,15.37
2018-06-12T01:34:04.383Z,16.47
2018-06-12T01:35:09.817Z,16.07
2018-06-12T01:36:15.351Z,15.30
2018-06-12T01:37:20.788Z,16.10
2018-06-12T01:38:26.447Z,18.83
2018-06-12T01:39:31.987Z,16.23
2018-06-12T01:40:37.418Z,14.67
2018-06-12T01:41:42.933Z,15.00
2018-06-12T01:42:48.522Z,12.00
2018-06-12T01:43:53.998Z,17.73
2018-06-12T01:44:59.400Z,13.43
2018-06-12T01:46:05.115Z,19.90
2018-06-12T01:47:10.893Z,13.80
2018-06-12T01:48:16.326Z,16.90
2018-06-12T01:49:21.830Z,18.50
2018-06-12T01:50:27.225Z,17.37
2018-06-12T01:51:32.689Z,13.50
2018-06-12T01:52:38.169Z,12.80
2018-06-12T01:53:43.581Z,15.10
2018-06-12T01:54:49.454Z,13.30
2018-06-12T01:55:54.857Z,16.83
2018-06-12T01:57:00.305Z,14.70
2018-06-12T01:58:05.730Z,17.40
2018-06-12T01:59:11.270Z,18.30
2018-06-12T02:00:16.805Z,13.90
2018-06-12T02:01:22.249Z,11.97
2018-06-12T02:02:27.672Z,11.10
2018-06-12T02:03:33.100Z,14.90
2018-06-12T02:04:38.539Z,14.13
2018-06-12T02:05:44.522Z,12.10
2018-06-12T02:06:49.942Z,20.03
2018-06-12T02:07:55.400Z,12.50
2018-06-12T02:09:00.851Z,16.13
2018-06-12T02:10:06.365Z,13.00
2018-06-12T02:11:11.869Z,16.83
2018-06-12T02:12:17.303Z,12.17
2018-06-12T02:13:22.696Z,16.73
2018-06-12T02:14:28.229Z,14.07
2018-06-12T02:15:34.101Z,14.80
2018-06-12T02:16:39.481Z,16.00
2018-06-12T02:17:44.898Z,13.53
2018-06-12T02:18:50.353Z,10.60
2018-06-12T02:19:55.761Z,12.40
2018-06-12T02:21:01.218Z,15.47
2018-06-12T02:22:07.191Z,17.33
2018-06-12T02:23:12.731Z,16.73
2018-06-12T02:24:18.204Z,14.13
2018-06-12T02:25:23.949Z,12.87
2018-06-12T02:26:29.363Z,17.20
2018-06-12T02:27:34.805Z,15.23
2018-06-12T02:28:40.467Z,13.13
2018-06-12T02:29:46.188Z,16.63
2018-06-12T02:30:51.617Z,15.43
2018-06-12T02:31:57.112Z,17.33
2018-06-12T02:33:02.568Z,19.07
2018-06-12T02:34:07.999Z,14.83
2018-06-12T02:35:13.422Z,14.33
2018-06-12T02:36:18.851Z,17.37
2018-06-12T02:37:24.735Z,13.73
2018-06-12T02:38:30.142Z,15.73
2018-06-12T02:39:35.582Z,17.40
2018-06-12T02:40:40.974Z,18.30
2018-06-12T02:41:46.386Z,16.10
2018-06-12T02:42:52.073Z,14.27
2018-06-12T02:43:57.511Z,15.87
2018-06-12T02:45:03.078Z,18.90
2018-06-12T02:46:08.490Z,15.10
2018-06-12T02:47:13.943Z,12.97
2018-06-12T02:48:19.354Z,13.70
2018-06-12T02:49:24.911Z,19.93
2018-06-12T02:50:30.348Z,18.40
2018-06-12T02:51:35.759Z,13.17
2018-06-12T02:52:41.148Z,19.43
2018-06-12T02:53:46.807Z,13.67
2018-06-12T02:54:52.425Z,17.33
2018-06-12T02:55:57.826Z,17.30
2018-06-12T02:57:03.231Z,16.63
2018-06-12T02:58:08.634Z,25.20
2018-06-12T02:59:14.052Z,14.70
2018-06-12T03:00:19.510Z,15.73
2018-06-12T03:01:32.108Z,14.90
2018-06-12T03:02:37.613Z,13.13
2018-06-12T03:03:43.024Z,13.50
2018-06-12T03:04:48.433Z,14.43
2018-06-12T03:05:53.905Z,12.70
2018-06-12T03:06:59.314Z,14.47
2018-06-12T03:08:04.809Z,13.97
2018-06-12T03:09:10.510Z,14.30
2018-06-12T03:10:15.983Z,12.77
2018-06-12T03:11:21.402Z,14.53
2018-06-12T03:12:26.920Z,14.30
2018-06-12T03:13:32.304Z,15.57
2018-06-12T03:14:37.852Z,14.83
2018-06-12T03:15:43.249Z,12.50
2018-06-12T03:16:49.128Z,17.73
2018-06-12T03:17:54.500Z,14.73
2018-06-12T03:18:59.896Z,19.40
2018-06-12T03:20:05.353Z,12.00
2018-06-12T03:21:10.762Z,12.90
2018-06-12T03:22:16.247Z,17.43
2018-06-12T03:23:21.710Z,23.37
2018-06-12T03:24:26.766Z,11.27
2018-06-12T03:25:32.085Z,10.63
2018-06-12T03:26:37.550Z,13.00
2018-06-12T03:27:42.960Z,11.77
2018-06-12T03:28:48.597Z,14.97
2018-06-12T03:29:53.996Z,12.40
2018-06-12T03:30:59.441Z,17.53
2018-06-12T03:32:05.231Z,15.63
2018-06-12T03:33:10.666Z,13.17
2018-06-12T03:34:16.132Z,13.03
2018-06-12T03:35:21.553Z,16.67
2018-06-12T03:36:27.017Z,18.60
2018-06-12T03:37:32.437Z,12.67
2018-06-12T03:38:37.828Z,15.73
2018-06-12T03:39:43.256Z,12.53
2018-06-12T03:40:48.710Z,14.20
2018-06-12T03:41:54.218Z,16.30
2018-06-12T03:42:59.635Z,18.67
2018-06-12T03:44:05.093Z,14.57
2018-06-12T03:45:10.525Z,13.53
2018-06-12T03:46:16.162Z,11.50
2018-06-12T03:47:21.557Z,15.20
2018-06-12T03:48:27.324Z,12.50
2018-06-12T03:49:32.739Z,15.10
2018-06-12T03:50:38.162Z,13.03
2018-06-12T03:51:43.589Z,12.27
2018-06-12T03:52:49.046Z,10.77
2018-06-12T03:53:54.757Z,16.40
2018-06-12T03:55:00.161Z,14.40
2018-06-12T03:56:05.677Z,10.87
2018-06-12T03:57:11.096Z,11.83
2018-06-12T03:58:16.533Z,9.50
2018-06-12T03:59:21.964Z,10.43
2018-06-12T04:00:27.405Z,9.57
2018-06-12T04:01:32.866Z,13.93
2018-06-12T04:02:38.359Z,10.13
2018-06-12T04:03:43.810Z,11.67
2018-06-12T04:04:49.297Z,11.30
2018-06-12T04:05:54.717Z,10.07
2018-06-12T04:07:00.150Z,16.53
2018-06-12T04:08:05.817Z,11.97
2018-06-12T04:09:11.285Z,9.73
2018-06-12T04:10:16.794Z,13.53
2018-06-12T04:11:22.274Z,8.40
2018-06-12T04:12:27.725Z,9.27
2018-06-12T04:13:33.158Z,12.87
2018-06-12T04:14:39.042Z,10.20
2018-06-12T04:15:44.465Z,11.30
2018-06-12T04:16:49.903Z,14.43
2018-06-12T04:17:55.365Z,8.67
2018-06-12T04:19:00.797Z,10.40
2018-06-12T04:20:06.326Z,13.20
2018-06-12T04:21:12.081Z,9.70
2018-06-12T04:22:17.620Z,9.27
2018-06-12T04:23:23.079Z,8.97
2018-06-12T04:24:28.570Z,7.33
2018-06-12T04:25:33.993Z,16.37
2018-06-12T04:26:39.436Z,9.40
2018-06-12T04:27:45.225Z,13.80
2018-06-12T04:28:50.726Z,11.47
2018-06-12T04:29:56.453Z,10.97
2018-06-12T04:31:01.846Z,10.43
2018-06-12T04:32:07.298Z,11.67
2018-06-12T04:33:12.770Z,17.70
2018-06-12T04:34:18.318Z,8.70
2018-06-12T04:35:23.726Z,12.90
2018-06-12T04:36:29.255Z,9.50
2018-06-12T04:37:34.640Z,10.10
2018-06-12T04:38:40.041Z,15.47
2018-06-12T04:39:45.744Z,12.13
2018-06-12T04:40:53.982Z,10.10
2018-06-12T04:41:59.427Z,23.93
2018-06-12T04:43:05.028Z,12.73
2018-06-12T04:44:10.450Z,12.77
2018-06-12T04:45:15.994Z,10.70
2018-06-12T04:46:21.427Z,10.23
2018-06-12T04:47:26.846Z,12.23
2018-06-12T04:48:32.419Z,12.30
2018-06-12T04:49:37.812Z,15.03
2018-06-12T04:50:43.418Z,12.40
2018-06-12T04:51:49.110Z,12.53
2018-06-12T04:52:54.558Z,10.90
2018-06-12T04:53:59.953Z,12.73
2018-06-12T04:55:05.722Z,14.47
2018-06-12T04:56:11.166Z,11.63
2018-06-12T04:57:16.618Z,8.97
2018-06-12T04:58:22.086Z,6.03
2018-06-12T04:59:27.488Z,8.83
2018-06-12T05:00:32.898Z,13.37
2018-06-12T05:01:38.293Z,14.60
2018-06-12T05:02:43.714Z,11.90
2018-06-12T05:03:49.344Z,13.27
2018-06-12T05:04:54.777Z,11.90
2018-06-12T05:06:00.365Z,9.33
2018-06-12T05:07:05.802Z,14.90
2018-06-12T05:08:11.285Z,12.33
2018-06-12T05:09:16.685Z,11.87
2018-06-12T05:10:22.250Z,11.40
2018-06-12T05:11:27.730Z,11.23
2018-06-12T05:12:33.143Z,11.63
2018-06-12T05:13:38.614Z,7.00
2018-06-12T05:14:44.042Z,8.77
2018-06-12T05:15:50.211Z,11.73
2018-06-12T05:16:55.630Z,9.67
2018-06-12T05:18:01.035Z,10.83
2018-06-12T05:19:06.466Z,15.93
2018-06-12T05:20:11.890Z,9.87
2018-06-12T05:21:17.509Z,10.03
2018-06-12T05:22:23.044Z,14.37
2018-06-12T05:23:28.477Z,12.60
2018-06-12T05:24:33.877Z,12.03
2018-06-12T05:25:39.383Z,10.60
2018-06-12T05:26:46.371Z,12.17
2018-06-12T05:27:51.809Z,16.83
2018-06-12T05:28:57.253Z,14.90
2018-06-12T05:30:02.717Z,11.23
2018-06-12T05:31:10.046Z,10.73
2018-06-12T05:32:16.086Z,8.93
2018-06-12T05:33:21.643Z,12.10
2018-06-12T05:34:27.056Z,9.63
2018-06-12T05:35:32.517Z,7.63
2018-06-12T05:36:37.973Z,11.93
2018-06-12T05:37:43.431Z,11.47
2018-06-12T05:38:49.033Z,12.23
2018-06-12T05:39:54.437Z,10.83
2018-06-12T05:40:59.845Z,7.43
2018-06-12T05:42:05.282Z,11.13
2018-06-12T05:43:10.689Z,9.80
2018-06-12T05:44:16.185Z,10.53
2018-06-12T05:45:21.597Z,9.20
2018-06-12T05:46:26.992Z,6.00
2018-06-12T05:47:32.401Z,11.47
2018-06-12T05:48:38.302Z,10.77
2018-06-12T05:49:43.730Z,8.67
2018-06-12T05:50:49.130Z,8.43
2018-06-12T05:51:54.568Z,9.20
2018-06-12T05:52:59.982Z,12.83
2018-06-12T05:54:05.615Z,13.90
2018-06-12T05:55:11.075Z,14.27
2018-06-12T05:56:16.510Z,11.73
2018-06-12T05:57:21.934Z,12.23
2018-06-12T05:58:27.343Z,18.20
2018-06-12T05:59:32.781Z,13.60
2018-06-12T06:00:38.230Z,9.10
2018-06-12T06:01:43.646Z,10.30
2018-06-12T06:02:49.105Z,6.57
2018-06-12T06:03:54.628Z,8.20
2018-06-12T06:05:00.020Z,10.07
2018-06-12T06:06:05.438Z,10.13
2018-06-12T06:07:10.843Z,13.33
2018-06-12T06:08:16.226Z,7.87
2018-06-12T06:09:21.686Z,5.93
2018-06-12T06:10:27.313Z,8.80
2018-06-12T06:11:32.790Z,18.10
2018-06-12T06:12:38.287Z,13.53
2018-06-12T06:13:43.689Z,14.30
2018-06-12T06:14:49.150Z,9.17
2018-06-12T06:15:54.904Z,10.47
2018-06-12T06:17:00.535Z,10.50
2018-06-12T06:18:05.940Z,8.97
2018-06-12T06:19:11.342Z,16.23
2018-06-12T06:20:16.746Z,9.53
2018-06-12T06:21:22.238Z,11.53
2018-06-12T06:22:27.702Z,8.43
2018-06-12T06:23:33.105Z,12.83
2018-06-12T06:24:38.493Z,7.40
2018-06-12T06:25:43.910Z,15.10
2018-06-12T06:26:49.410Z,6.03
2018-06-12T06:27:55.354Z,9.73
2018-06-12T06:29:00.759Z,8.70
2018-06-12T06:30:06.464Z,6.00
2018-06-12T06:31:11.921Z,7.97
2018-06-12T06:32:17.911Z,7.23
2018-06-12T06:33:23.361Z,9.67
2018-06-12T06:34:28.964Z,9.73
2018-06-12T06:35:34.409Z,7.03
2018-06-12T06:36:40.913Z,7.53
2018-06-12T06:37:46.305Z,8.00
2018-06-12T06:38:52.393Z,8.57
2018-06-12T06:39:57.832Z,8.00
2018-06-12T06:41:03.322Z,8.37
2018-06-12T06:42:08.773Z,8.63
2018-06-12T06:43:13.878Z,8.20
2018-06-12T06:44:19.522Z,7.00
2018-06-12T06:45:25.461Z,6.67
2018-06-12T06:46:30.869Z,9.47
2018-06-12T06:47:36.348Z,4.77
2018-06-12T06:48:41.941Z,11.80
2018-06-12T06:49:47.342Z,11.17
2018-06-12T06:50:52.928Z,5.87
2018-06-12T06:51:58.545Z,6.10
2018-06-12T06:53:03.657Z,7.73
2018-06-12T06:54:08.991Z,10.57
2018-06-12T06:55:14.450Z,7.77
2018-06-12T06:56:19.850Z,15.13
2018-06-12T06:57:25.275Z,9.07
2018-06-12T06:58:30.906Z,7.80
2018-06-12T06:59:36.345Z,9.23
2018-06-12T07:00:42.127Z,7.37
2018-06-12T07:01:47.551Z,7.63
2018-06-12T07:02:53.342Z,7.27
2018-06-12T07:03:58.890Z,10.20
2018-06-12T07:05:04.335Z,6.20
2018-06-12T07:06:09.937Z,8.10
2018-06-12T07:07:15.335Z,9.50
2018-06-12T07:08:20.799Z,17.30
2018-06-12T07:09:26.215Z,6.90
2018-06-12T07:10:31.631Z,11.10
2018-06-12T07:11:37.061Z,7.43
2018-06-12T07:12:42.898Z,8.00
2018-06-12T07:13:48.296Z,8.53
2018-06-12T07:14:54.096Z,7.47
2018-06-12T07:15:59.468Z,5.73
2018-06-12T07:17:04.961Z,5.07
2018-06-12T07:18:10.427Z,4.83
2018-06-12T07:19:15.842Z,7.57
2018-06-12T07:21:32.286Z,4.77
2018-06-12T07:22:37.708Z,7.67
2018-06-12T07:23:43.170Z,8.97
2018-06-12T07:24:48.674Z,8.20
2018-06-12T07:25:54.077Z,5.30
2018-06-12T07:26:59.538Z,10.37
2018-06-12T07:28:04.986Z,6.50
2018-06-12T07:29:10.440Z,8.17
2018-06-12T07:30:15.886Z,10.03
2018-06-12T07:31:21.280Z,10.53
2018-06-12T07:32:26.685Z,5.50
2018-06-12T07:33:32.081Z,13.17
2018-06-12T07:34:38.038Z,5.07
2018-06-12T07:35:43.471Z,4.33
2018-06-12T07:36:48.891Z,6.23
2018-06-12T07:37:54.329Z,5.53
2018-06-12T07:38:59.921Z,7.07
2018-06-12T07:40:05.725Z,5.20
2018-06-12T07:41:12.111Z,9.50
2018-06-12T07:42:17.974Z,4.60
2018-06-12T07:43:24.316Z,6.13
2018-06-12T07:44:29.778Z,12.97
2018-06-12T07:45:35.165Z,6.63
2018-06-12T07:46:40.595Z,12.30
2018-06-12T07:47:45.994Z,4.60
2018-06-12T07:48:51.521Z,7.67
2018-06-12T07:49:57.079Z,6.90
2018-06-12T07:51:02.582Z,6.70
2018-06-12T07:52:08.445Z,4.90
2018-06-12T07:53:13.916Z,7.57
2018-06-12T07:54:19.325Z,8.07
2018-06-12T07:55:24.745Z,5.27
2018-06-12T07:56:31.246Z,5.23
2018-06-12T07:57:36.810Z,8.43
2018-06-12T07:58:42.285Z,8.03
2018-06-12T07:59:47.689Z,9.17
2018-06-12T08:00:53.270Z,5.73
2018-06-12T08:01:58.670Z,5.27
2018-06-12T08:03:04.165Z,7.83
2018-06-12T08:04:10.224Z,4.10
2018-06-12T08:05:15.677Z,10.33
2018-06-12T08:06:21.342Z,9.40
2018-06-12T08:07:26.942Z,4.63
2018-06-12T08:08:32.701Z,7.63
2018-06-12T08:09:38.121Z,4.80
2018-06-12T08:10:43.557Z,8.23
2018-06-12T08:11:49.032Z,4.80
2018-06-12T08:12:54.507Z,3.20
2018-06-12T08:13:59.881Z,4.23
2018-06-12T08:15:05.426Z,7.47
2018-06-12T08:16:10.837Z,4.83
2018-06-12T08:17:16.308Z,7.30
2018-06-12T08:18:21.834Z,4.80
2018-06-12T08:19:27.222Z,12.80
2018-06-12T08:20:32.706Z,12.97
2018-06-12T08:21:38.138Z,5.03
2018-06-12T08:22:43.734Z,7.60
2018-06-12T08:23:49.778Z,5.63
2018-06-12T08:24:55.191Z,6.63
2018-06-12T08:26:00.745Z,4.97
2018-06-12T08:27:06.188Z,9.30
2018-06-12T08:28:11.616Z,7.87
2018-06-12T08:29:17.029Z,9.13
2018-06-12T08:30:22.608Z,5.33
2018-06-12T08:31:28.506Z,8.17
2018-06-12T08:32:33.960Z,7.90
2018-06-12T08:33:39.781Z,4.33
2018-06-12T08:34:45.196Z,6.00
2018-06-12T08:35:50.826Z,8.37
2018-06-12T08:36:56.688Z,5.07
2018-06-12T08:38:02.267Z,4.07
2018-06-12T08:39:09.038Z,9.93
2018-06-12T08:40:14.473Z,5.80
2018-06-12T08:41:20.070Z,5.40
2018-06-12T08:42:25.909Z,6.30
2018-06-12T08:43:31.381Z,4.33
2018-06-12T08:44:37.013Z,5.97
2018-06-12T08:45:42.423Z,6.23
2018-06-12T08:46:47.854Z,5.20
2018-06-12T08:47:53.333Z,4.83
2018-06-12T08:48:58.737Z,8.07
2018-06-12T08:50:04.373Z,4.43
2018-06-12T08:51:09.801Z,4.43
2018-06-12T08:52:15.233Z,7.50
2018-06-12T08:53:20.662Z,6.97
2018-06-12T08:54:25.745Z,6.63
2018-06-12T08:55:31.082Z,3.33
2018-06-12T08:56:36.485Z,6.63
2018-06-12T08:57:42.207Z,7.57
2018-06-12T08:58:47.778Z,4.93
2018-06-12T08:59:53.286Z,6.50
2018-06-12T09:00:58.713Z,4.40
2018-06-12T09:02:04.225Z,3.90
2018-06-12T09:03:09.737Z,4.83
2018-06-12T09:04:15.160Z,4.30
2018-06-12T09:05:20.606Z,7.20
2018-06-12T09:06:26.098Z,6.40
2018-06-12T09:07:31.529Z,4.03
2018-06-12T09:08:36.949Z,6.80
2018-06-12T09:09:42.933Z,3.80
2018-06-12T09:10:48.396Z,5.37
2018-06-12T09:11:53.922Z,4.73
2018-06-12T09:12:59.351Z,6.03
2018-06-12T09:14:05.038Z,3.97
2018-06-12T09:15:10.497Z,2.73
2018-06-12T09:16:15.938Z,4.90
2018-06-12T09:17:21.377Z,3.60
2018-06-12T09:18:26.895Z,8.00
2018-06-12T09:19:32.686Z,5.07
2018-06-12T09:20:38.177Z,5.77
2018-06-12T09:21:43.593Z,4.03
2018-06-12T09:22:49.090Z,5.30
2018-06-12T09:23:54.652Z,6.60
2018-06-12T09:25:00.105Z,7.77
2018-06-12T09:26:05.799Z,10.40
2018-06-12T09:27:11.252Z,4.63
2018-06-12T09:28:17.234Z,4.77
2018-06-12T09:29:22.690Z,4.67
2018-06-12T09:30:28.094Z,6.87
2018-06-12T09:31:33.506Z,8.37
2018-06-12T09:32:38.982Z,2.93
2018-06-12T09:33:44.418Z,7.57
2018-06-12T09:34:49.858Z,8.80
2018-06-12T09:35:59.346Z,7.83
2018-06-12T09:37:05.016Z,8.23
2018-06-12T09:38:10.919Z,5.70
2018-06-12T09:39:16.394Z,4.63
2018-06-12T09:40:21.793Z,8.43
2018-06-12T09:41:27.254Z,6.87
2018-06-12T09:42:32.661Z,4.87
2018-06-12T09:43:38.200Z,5.30
2018-06-12T09:44:43.611Z,3.50
2018-06-12T09:45:49.234Z,4.57
2018-06-12T09:46:54.814Z,4.17
2018-06-12T09:48:00.247Z,9.13
2018-06-12T09:49:05.761Z,7.73
2018-06-12T09:50:11.357Z,3.70
2018-06-12T09:51:16.827Z,3.80
2018-06-12T09:52:25.077Z,4.60
2018-06-12T09:53:30.796Z,5.53
2018-06-12T09:54:36.278Z,4.50
2018-06-12T09:55:41.753Z,7.93
2018-06-12T09:56:47.296Z,5.50
2018-06-12T09:57:52.774Z,5.30
2018-06-12T09:58:58.264Z,4.90
2018-06-12T10:00:03.715Z,6.50
2018-06-12T10:01:14.421Z,8.30
2018-06-12T10:02:19.863Z,4.93
2018-06-12T10:03:25.294Z,8.83
2018-06-12T10:04:30.730Z,5.13
2018-06-12T10:05:36.166Z,3.80
2018-06-12T10:06:41.629Z,4.00
2018-06-12T10:07:47.114Z,4.87
2018-06-12T10:08:52.654Z,5.63
2018-06-12T10:09:58.073Z,5.27
2018-06-12T10:11:03.497Z,8.77
2018-06-12T10:12:08.933Z,6.77
2018-06-12T10:13:14.480Z,6.10
2018-06-12T10:14:19.910Z,7.70
2018-06-12T10:15:25.367Z,5.57
2018-06-12T10:16:30.768Z,6.30
2018-06-12T10:17:41.961Z,4.10
2018-06-12T10:18:47.473Z,9.80
2018-06-12T10:19:53.386Z,7.30
2018-06-12T10:20:58.819Z,4.70
2018-06-12T10:22:05.071Z,3.23
2018-06-12T10:23:10.497Z,7.00
2018-06-12T10:24:16.317Z,7.17
2018-06-12T10:25:21.725Z,3.60
2018-06-12T10:26:27.425Z,7.87
2018-06-12T10:27:32.866Z,6.00
2018-06-12T10:28:38.297Z,7.90
2018-06-12T10:29:43.731Z,7.70
2018-06-12T10:30:49.161Z,7.67
2018-06-12T10:31:54.573Z,14.67
2018-06-12T10:33:00.053Z,10.50
2018-06-12T10:34:05.473Z,5.27
2018-06-12T10:35:10.938Z,7.70
2018-06-12T10:36:16.369Z,10.33
2018-06-12T10:37:21.895Z,5.73
2018-06-12T10:38:27.304Z,6.30
2018-06-12T10:39:33.726Z,6.30
2018-06-12T10:40:39.166Z,8.97
2018-06-12T10:41:44.663Z,5.40
2018-06-12T10:42:50.079Z,4.40
2018-06-12T10:43:55.563Z,3.83
2018-06-12T10:45:01.045Z,6.37
2018-06-12T10:46:07.013Z,9.37
2018-06-12T10:47:12.429Z,11.13
2018-06-12T10:48:17.890Z,9.00
2018-06-12T10:49:23.362Z,5.73
2018-06-12T10:50:29.026Z,6.50
2018-06-12T10:51:34.460Z,5.03
2018-06-12T10:52:39.878Z,3.13
2018-06-12T10:53:45.300Z,10.03
2018-06-12T10:54:50.728Z,7.57
2018-06-12T10:55:56.430Z,5.50
2018-06-12T10:57:02.048Z,6.23
2018-06-12T10:58:07.681Z,5.60
2018-06-12T10:59:13.086Z,6.00
2018-06-12T11:00:18.584Z,7.17
2018-06-12T11:01:24.079Z,6.23
2018-06-12T11:02:29.730Z,3.90
2018-06-12T11:03:35.207Z,6.70
2018-06-12T11:04:40.637Z,4.37
2018-06-12T11:05:46.075Z,11.30
2018-06-12T11:06:51.833Z,7.63
2018-06-12T11:07:57.769Z,11.17
2018-06-12T11:09:03.257Z,7.20
2018-06-12T11:10:08.913Z,6.67
2018-06-12T11:11:14.325Z,6.33
2018-06-12T11:12:19.743Z,11.03
2018-06-12T11:13:25.249Z,3.87
2018-06-12T11:14:30.695Z,8.50
2018-06-12T11:15:36.749Z,5.80
2018-06-12T11:16:42.295Z,6.53
2018-06-12T11:17:47.719Z,7.83
2018-06-12T11:18:53.205Z,4.70
2018-06-12T11:19:58.702Z,9.80
2018-06-12T11:21:04.114Z,4.20
2018-06-12T11:22:09.705Z,5.60
2018-06-12T11:23:15.119Z,9.97
2018-06-12T11:24:20.992Z,5.80
2018-06-12T11:25:26.421Z,6.20
2018-06-12T11:26:31.961Z,7.80
2018-06-12T11:27:37.419Z,7.70
2018-06-12T11:28:42.826Z,3.83
2018-06-12T11:29:48.386Z,6.57
2018-06-12T11:30:53.877Z,10.13
2018-06-12T11:31:59.033Z,5.03
2018-06-12T11:33:04.441Z,4.70
2018-06-12T11:34:16.522Z,5.90
2018-06-12T11:35:21.992Z,3.93
2018-06-12T11:36:27.582Z,3.80
2018-06-12T11:37:33.434Z,4.10
2018-06-12T11:38:38.830Z,8.70
2018-06-12T11:39:44.260Z,5.40
2018-06-12T11:40:49.806Z,7.80
2018-06-12T11:41:55.709Z,5.83
2018-06-12T11:43:01.553Z,5.67
2018-06-12T11:44:07.071Z,10.20
2018-06-12T11:45:12.488Z,8.10
2018-06-12T11:46:17.901Z,7.43
2018-06-12T11:47:23.346Z,7.77
2018-06-12T11:48:28.968Z,7.40
2018-06-12T11:49:34.375Z,8.43
2018-06-12T11:50:39.801Z,5.97
2018-06-12T11:51:45.265Z,14.80
2018-06-12T11:52:50.723Z,6.07
2018-06-12T11:53:56.199Z,5.37
2018-06-12T11:55:01.675Z,11.37
2018-06-12T11:56:07.211Z,10.00
2018-06-12T11:57:12.646Z,8.20
2018-06-12T11:58:18.092Z,8.80
2018-06-12T11:59:23.610Z,6.33
2018-06-12T12:00:29.047Z,9.30
2018-06-12T12:01:34.478Z,12.50
2018-06-12T12:02:40.201Z,11.40
2018-06-12T12:03:45.650Z,6.50
2018-06-12T12:04:52.183Z,4.83
2018-06-12T12:05:57.676Z,10.67
2018-06-12T12:07:03.359Z,9.33
2018-06-12T12:08:08.789Z,5.33
2018-06-12T12:09:14.270Z,10.03
2018-06-12T12:10:19.720Z,9.43
2018-06-12T12:11:25.174Z,12.20
2018-06-12T12:12:30.594Z,11.03
2018-06-12T12:13:36.070Z,7.10
2018-06-12T12:14:41.749Z,8.07
2018-06-12T12:15:47.149Z,6.73
2018-06-12T12:16:52.832Z,7.37
2018-06-12T12:17:58.959Z,11.57
2018-06-12T12:19:04.458Z,6.27
2018-06-12T12:20:09.877Z,10.73
2018-06-12T12:21:15.305Z,10.93
2018-06-12T12:22:21.170Z,8.37
2018-06-12T12:23:26.660Z,8.57
2018-06-12T12:24:32.076Z,12.80
2018-06-12T12:25:37.474Z,7.57
2018-06-12T12:26:42.921Z,10.87
2018-06-12T12:27:48.607Z,6.53
2018-06-12T12:28:54.080Z,4.80
2018-06-12T12:29:59.548Z,9.60
2018-06-12T12:31:04.996Z,7.00
2018-06-12T12:32:10.413Z,6.73
2018-06-12T12:33:15.899Z,11.23
2018-06-12T12:34:21.455Z,7.80
2018-06-12T12:35:26.874Z,8.73
2018-06-12T12:36:32.326Z,11.57
2018-06-12T12:37:37.760Z,8.03
2018-06-12T12:38:42.911Z,5.87
2018-06-12T12:39:48.723Z,12.73
2018-06-12T12:40:54.175Z,7.50
2018-06-12T12:41:59.587Z,10.40
2018-06-12T12:43:05.013Z,8.23
2018-06-12T12:44:10.399Z,5.83
2018-06-12T12:45:15.866Z,9.83
2018-06-12T12:46:21.306Z,6.60
2018-06-12T12:47:26.769Z,7.00
2018-06-12T12:48:32.365Z,10.10
2018-06-12T12:49:37.810Z,12.17
2018-06-12T12:50:43.444Z,6.90
2018-06-12T12:51:48.870Z,10.30
2018-06-12T12:52:54.567Z,6.57
2018-06-12T12:54:00.041Z,10.20
2018-06-12T12:55:05.461Z,7.47
2018-06-12T12:56:11.129Z,5.57
2018-06-12T12:57:16.602Z,10.80
2018-06-12T12:58:22.135Z,9.27
2018-06-12T12:59:27.663Z,6.43
2018-06-12T13:00:33.244Z,8.60
2018-06-12T13:01:38.759Z,8.23
2018-06-12T13:02:44.173Z,6.50
2018-06-12T13:03:49.866Z,10.20
2018-06-12T13:04:55.278Z,9.27
2018-06-12T13:06:00.697Z,9.00
2018-06-12T13:07:06.187Z,8.10
2018-06-12T13:08:11.656Z,7.17
2018-06-12T13:09:17.212Z,9.93
2018-06-12T13:10:22.753Z,9.03
2018-06-12T13:11:28.200Z,6.20
2018-06-12T13:12:33.653Z,8.40
2018-06-12T13:13:39.103Z,9.00
2018-06-12T13:14:45.134Z,10.50
2018-06-12T13:15:50.729Z,11.37
2018-06-12T13:16:56.354Z,7.87
2018-06-12T13:18:01.784Z,7.90
2018-06-12T13:19:07.231Z,7.00
2018-06-12T13:20:12.827Z,12.77
2018-06-12T13:21:18.229Z,10.23
2018-06-12T13:22:23.730Z,7.43
2018-06-12T13:23:29.153Z,7.57
2018-06-12T13:24:34.589Z,7.73
2018-06-12T13:25:40.098Z,8.10
2018-06-12T13:26:45.571Z,14.20
2018-06-12T13:27:51.139Z,16.17
2018-06-12T13:28:56.573Z,12.40
2018-06-12T13:30:02.031Z,12.43
2018-06-12T13:31:07.470Z,8.73
2018-06-12T13:32:12.881Z,10.30
2018-06-12T13:33:18.333Z,5.63
2018-06-12T13:34:23.797Z,5.50
2018-06-12T13:35:29.262Z,8.43
2018-06-12T13:36:34.770Z,6.67
2018-06-12T13:37:39.946Z,9.83
2018-06-12T13:38:45.269Z,10.03
2018-06-12T13:39:51.095Z,8.20
2018-06-12T13:40:56.509Z,8.53
2018-06-12T13:42:02.153Z,10.03
2018-06-12T13:43:07.709Z,6.67
2018-06-12T13:44:13.124Z,6.30
2018-06-12T13:45:18.545Z,6.80
2018-06-12T13:46:24.043Z,11.30
2018-06-12T13:47:29.530Z,7.83
2018-06-12T13:48:34.990Z,8.20
2018-06-12T13:49:40.452Z,6.30
2018-06-12T13:50:45.869Z,7.80
2018-06-12T13:51:51.381Z,9.47
2018-06-12T13:52:56.817Z,7.60
2018-06-12T13:54:02.407Z,8.30
2018-06-12T13:55:07.796Z,9.40
2018-06-12T13:56:13.310Z,10.87
2018-06-12T13:57:18.720Z,5.80
2018-06-12T13:58:24.201Z,9.40
2018-06-12T13:59:29.628Z,5.60
2018-06-12T14:00:35.122Z,11.07
2018-06-12T14:01:40.574Z,8.40
2018-06-12T14:02:45.966Z,10.83
2018-06-12T14:03:51.530Z,11.73
2018-06-12T14:04:56.983Z,10.30
2018-06-12T14:06:02.408Z,7.87
2018-06-12T14:07:07.902Z,6.27
2018-06-12T14:08:13.283Z,7.33
2018-06-12T14:09:18.717Z,9.33
2018-06-12T14:10:24.221Z,7.97
2018-06-12T14:11:29.712Z,6.80
2018-06-12T14:12:35.133Z,6.90
2018-06-12T14:13:40.641Z,8.63
2018-06-12T14:14:46.060Z,12.00
2018-06-12T14:15:52.001Z,6.13
2018-06-12T14:16:57.468Z,10.83
2018-06-12T14:18:02.974Z,7.00
2018-06-12T14:19:08.419Z,15.33
2018-06-12T14:20:13.910Z,7.70